Time;durP1;ratioP1;P1;durP2;ratioP2;P2;SDS_P1;SDS_P2;PMS_P1;PMS_P2;Temp;Humidity;BMP_temperature;BMP_pressure;BME280_temperature;BME280_humidity;BME280_pressure;Samples;Min_cycle;Max_cycle;Signal;HPM_P1;HPM_P2
2022/01/10 00:00:54;;;;;;;17.63;6.97;;;2.60;99.90;;;;;;5027827;28;20056;-68
2022/01/10 00:03:23;;;;;;;14.15;7.97;;;2.60;99.90;;;;;;5029198;28;20053;-69
2022/01/10 00:05:51;;;;;;;11.18;6.55;;;2.50;99.90;;;;;;5024792;28;20396;-69
2022/01/10 00:08:19;;;;;;;14.48;7.03;;;2.50;99.90;;;;;;5030064;28;20041;-70
2022/01/10 00:10:46;;;;;;;12.98;6.82;;;2.50;99.90;;;;;;5034282;28;20038;-69
2022/01/10 00:13:14;;;;;;;20.45;7.85;;;2.50;99.90;;;;;;5029667;28;20565;-69
2022/01/10 00:15:41;;;;;;;14.80;7.78;;;2.40;99.90;;;;;;5028812;28;20049;-69
2022/01/10 00:18:09;;;;;;;17.40;8.77;;;2.50;99.90;;;;;;5023130;28;20045;-69
2022/01/10 00:20:36;;;;;;;13.05;8.02;;;2.40;99.90;;;;;;5029048;28;20037;-69
2022/01/10 00:23:04;;;;;;;13.57;7.68;;;2.50;99.90;;;;;;5027772;28;20049;-70
2022/01/10 00:25:32;;;;;;;15.35;7.43;;;2.50;99.90;;;;;;5027184;28;20419;-69
2022/01/10 00:27:59;;;;;;;14.55;7.93;;;2.50;99.90;;;;;;5028108;28;20136;-70
2022/01/10 00:30:28;;;;;;;14.45;7.80;;;2.50;99.90;;;;;;5026255;28;20452;-69
2022/01/10 00:32:55;;;;;;;16.92;8.13;;;2.50;99.90;;;;;;5016106;28;20207;-68
2022/01/10 00:35:22;;;;;;;14.77;7.40;;;2.50;99.90;;;;;;5028090;28;20145;-69
2022/01/10 00:37:51;;;;;;;15.43;7.53;;;2.50;99.90;;;;;;5028589;28;20045;-69
2022/01/10 00:40:20;;;;;;;17.70;7.47;;;2.40;99.90;;;;;;5028271;28;20038;-69
2022/01/10 00:42:54;;;;;;;12.45;6.97;;;2.40;99.90;;;;;;5027716;28;20049;-69
2022/01/10 00:45:27;;;;;;;15.02;7.90;;;2.40;99.90;;;;;;5022007;28;20415;-69
2022/01/10 00:47:59;;;;;;;15.00;8.02;;;2.40;99.90;;;;;;5027112;28;20678;-69
2022/01/10 00:50:28;;;;;;;13.90;7.30;;;2.50;99.90;;;;;;5033203;28;20041;-69
2022/01/10 00:52:57;;;;;;;12.82;7.00;;;2.50;99.90;;;;;;5027782;28;20097;-69
2022/01/10 00:55:25;;;;;;;14.43;8.32;;;2.40;99.90;;;;;;5006927;28;20073;-69
2022/01/10 00:57:52;;;;;;;13.55;7.20;;;2.50;99.90;;;;;;5023390;28;20045;-69
2022/01/10 01:00:20;;;;;;;13.43;7.10;;;2.40;99.90;;;;;;5028225;28;20099;-69
2022/01/10 01:02:47;;;;;;;12.80;7.43;;;2.50;99.90;;;;;;5028108;28;20045;-69
2022/01/10 01:05:18;;;;;;;12.25;7.00;;;2.50;99.90;;;;;;5027400;28;20065;-69
2022/01/10 01:07:45;;;;;;;15.50;7.10;;;2.50;99.90;;;;;;5028028;28;20459;-70
2022/01/10 01:12:52;;;;;;;15.23;7.88;;;2.50;99.90;;;;;;5027871;28;20045;-69
2022/01/10 01:15:24;;;;;;;14.45;7.65;;;2.40;99.90;;;;;;5027133;28;20092;-69
2022/01/10 01:26:02;;;;;;;19.35;8.13;;;2.40;99.90;;;;;;5025199;28;20049;-69
2022/01/10 01:28:30;;;;;;;17.15;8.07;;;2.30;99.90;;;;;;5026963;28;20768;-69
2022/01/10 01:30:57;;;;;;;13.40;7.40;;;2.30;99.90;;;;;;5035894;28;20065;-71
2022/01/10 01:33:25;;;;;;;12.73;7.05;;;2.30;99.90;;;;;;5034615;28;20067;-68
2022/01/10 01:35:53;;;;;;;14.82;7.15;;;2.30;99.90;;;;;;5028384;28;20094;-68
2022/01/10 01:38:21;;;;;;;13.38;7.47;;;2.30;99.90;;;;;;5030261;28;20139;-69
2022/01/10 01:40:56;;;;;;;13.95;7.90;;;2.30;99.90;;;;;;5039260;28;20128;-69
2022/01/10 01:43:24;;;;;;;12.70;7.70;;;2.30;99.90;;;;;;5039464;28;20033;-69
2022/01/10 01:45:51;;;;;;;16.35;8.00;;;2.20;99.90;;;;;;5030083;28;20084;-69
2022/01/10 01:48:19;;;;;;;18.83;8.68;;;2.20;99.90;;;;;;5038672;28;20064;-69
2022/01/10 01:50:47;;;;;;;18.48;8.20;;;2.20;99.90;;;;;;5030060;28;20052;-68
2022/01/10 01:53:15;;;;;;;17.85;9.00;;;2.20;99.90;;;;;;5037657;28;21476;-70
2022/01/10 01:55:44;;;;;;;19.27;8.65;;;2.20;99.90;;;;;;5042268;28;20404;-68
2022/01/10 01:58:12;;;;;;;18.42;8.57;;;2.10;99.90;;;;;;5029240;28;20077;-69
2022/01/10 02:00:39;;;;;;;19.33;8.68;;;2.10;99.90;;;;;;5008568;28;20041;-68
2022/01/10 02:03:07;;;;;;;15.70;8.77;;;2.00;99.90;;;;;;5027868;28;20045;-69
2022/01/10 02:05:35;;;;;;;16.88;8.10;;;2.00;99.90;;;;;;5045097;28;20041;-69
2022/01/10 02:08:03;;;;;;;14.82;8.27;;;2.00;99.90;;;;;;5029181;28;20542;-69
2022/01/10 02:10:30;;;;;;;16.05;8.48;;;2.00;99.90;;;;;;5029524;28;20570;-69
2022/01/10 02:12:57;;;;;;;16.13;8.63;;;2.00;99.90;;;;;;5029817;28;20050;-68
2022/01/10 02:15:36;;;;;;;13.98;7.95;;;2.00;99.90;;;;;;5021784;28;20117;-69
2022/01/10 02:18:09;;;;;;;16.20;8.77;;;2.00;99.90;;;;;;5011642;28;20471;-69
2022/01/10 02:20:42;;;;;;;17.35;10.13;;;1.90;99.90;;;;;;5041582;28;20117;-69
2022/01/10 02:23:10;;;;;;;19.00;8.73;;;1.90;99.90;;;;;;5011462;28;20073;-68
2022/01/10 02:25:56;;;;;;;14.07;8.20;;;2.00;99.90;;;;;;5021356;28;20507;-68
2022/01/10 02:28:31;;;;;;;14.98;7.78;;;2.00;99.90;;;;;;5025753;28;20049;-69
2022/01/10 02:30:59;;;;;;;13.18;8.25;;;2.00;99.90;;;;;;5023777;28;20049;-69
2022/01/10 02:33:30;;;;;;;16.33;7.78;;;2.10;99.90;;;;;;5029567;28;20050;-69
2022/01/10 02:36:09;;;;;;;15.88;8.27;;;2.20;99.90;;;;;;5021063;28;20053;-68
2022/01/10 02:38:44;;;;;;;16.70;8.10;;;2.20;99.90;;;;;;5035588;28;20061;-69
2022/01/10 02:41:19;;;;;;;16.15;8.02;;;2.20;99.90;;;;;;5030239;28;20087;-69
2022/01/10 02:43:47;;;;;;;16.15;8.48;;;2.20;99.90;;;;;;5043969;28;20049;-70
2022/01/10 02:46:16;;;;;;;16.45;7.75;;;2.30;99.90;;;;;;5044863;28;20555;-68
2022/01/10 02:48:44;;;;;;;15.82;8.80;;;2.30;99.90;;;;;;5041688;28;20428;-69
2022/01/10 02:51:12;;;;;;;15.65;8.27;;;2.30;99.90;;;;;;5031053;28;20046;-69
2022/01/10 02:53:40;;;;;;;14.05;7.68;;;2.30;99.90;;;;;;5022283;28;20051;-69
2022/01/10 02:56:07;;;;;;;13.82;8.93;;;2.30;99.90;;;;;;5029631;28;20038;-70
2022/01/10 02:58:35;;;;;;;18.05;8.55;;;2.30;99.90;;;;;;5035246;28;20037;-70
2022/01/10 03:01:03;;;;;;;13.30;7.78;;;2.40;99.90;;;;;;5034236;28;20112;-69
2022/01/10 03:03:31;;;;;;;12.88;8.13;;;2.40;99.90;;;;;;5012788;28;20118;-69
2022/01/10 03:05:59;;;;;;;14.93;7.70;;;2.40;99.90;;;;;;5028856;28;20045;-69
2022/01/10 03:08:29;;;;;;;18.80;8.23;;;2.50;99.90;;;;;;5029856;28;20053;-70
2022/01/10 03:10:57;;;;;;;15.18;7.60;;;2.40;99.90;;;;;;5028442;28;20048;-69
2022/01/10 03:13:25;;;;;;;17.02;7.90;;;2.40;99.90;;;;;;5030806;28;20037;-70
2022/01/10 03:15:52;;;;;;;18.17;8.93;;;2.40;99.90;;;;;;5027748;28;20514;-69
2022/01/10 03:18:20;;;;;;;12.65;7.43;;;2.50;99.90;;;;;;5030881;28;20045;-69
2022/01/10 03:20:47;;;;;;;16.50;8.07;;;2.40;99.90;;;;;;5028100;28;20503;-69
2022/01/10 03:23:15;;;;;;;15.98;7.85;;;2.50;99.90;;;;;;5024531;28;20054;-70
2022/01/10 03:25:43;;;;;;;15.10;8.73;;;2.50;99.90;;;;;;5028108;28;20052;-69
2022/01/10 03:28:13;;;;;;;18.20;8.88;;;2.50;99.90;;;;;;5029898;28;20056;-70
2022/01/10 03:30:42;;;;;;;17.25;8.48;;;2.60;99.90;;;;;;5028948;28;20578;-70
2022/01/10 03:33:11;;;;;;;20.27;8.35;;;2.70;99.90;;;;;;5029242;28;20041;-70
2022/01/10 03:35:39;;;;;;;16.30;7.72;;;2.70;99.90;;;;;;5027107;28;20120;-70
2022/01/10 03:38:10;;;;;;;14.43;8.00;;;2.70;99.90;;;;;;5028351;28;20475;-70
2022/01/10 03:40:38;;;;;;;16.80;7.82;;;2.70;99.90;;;;;;5028326;28;20111;-70
2022/01/10 03:43:10;;;;;;;15.13;8.20;;;2.70;99.90;;;;;;5027651;28;20120;-70
2022/01/10 03:45:37;;;;;;;17.92;8.30;;;2.70;99.90;;;;;;5027292;28;20049;-70
2022/01/10 03:48:05;;;;;;;14.23;7.95;;;2.70;99.90;;;;;;5026640;28;20049;-70
2022/01/10 03:50:33;;;;;;;15.27;8.35;;;2.70;99.90;;;;;;5027163;28;20096;-70
2022/01/10 03:53:00;;;;;;;14.02;8.07;;;2.70;99.90;;;;;;5025739;28;20045;-69
2022/01/10 03:55:29;;;;;;;17.73;8.43;;;2.80;99.90;;;;;;5038883;28;20056;-70
2022/01/10 03:57:58;;;;;;;19.60;7.85;;;2.80;99.90;;;;;;5029861;28;20041;-70
2022/01/10 04:00:26;;;;;;;14.07;7.65;;;2.80;99.90;;;;;;5044565;28;20575;-69
2022/01/10 04:02:59;;;;;;;14.65;7.30;;;2.80;99.90;;;;;;5041938;28;20045;-70
2022/01/10 04:05:33;;;;;;;17.85;8.00;;;2.80;99.90;;;;;;5044387;28;20041;-70
2022/01/10 04:08:02;;;;;;;14.85;8.20;;;2.70;99.90;;;;;;5044157;28;20847;-70
2022/01/10 04:10:30;;;;;;;15.68;8.60;;;2.70;99.90;;;;;;5005917;28;20057;-70
2022/01/10 04:12:57;;;;;;;20.25;8.00;;;2.70;99.90;;;;;;5011108;28;20116;-70
2022/01/10 04:15:25;;;;;;;17.58;8.52;;;2.70;99.90;;;;;;5035515;28;20067;-70
2022/01/10 04:17:56;;;;;;;17.35;8.93;;;2.70;99.90;;;;;;5035857;28;20049;-70
2022/01/10 04:20:24;;;;;;;16.58;8.88;;;2.70;99.90;;;;;;5028210;28;20492;-69
2022/01/10 04:22:53;;;;;;;19.05;9.50;;;2.70;99.90;;;;;;5034807;28;20099;-69
2022/01/10 04:25:21;;;;;;;13.65;8.20;;;2.60;99.90;;;;;;5035612;28;20052;-70
2022/01/10 04:27:48;;;;;;;18.33;8.52;;;2.60;99.90;;;;;;5041075;28;20055;-69
2022/01/10 04:30:23;;;;;;;21.75;8.50;;;2.60;99.90;;;;;;5010294;28;20052;-69
2022/01/10 04:32:51;;;;;;;20.77;8.90;;;2.60;99.90;;;;;;5039856;28;20052;-70
2022/01/10 04:35:19;;;;;;;17.38;8.55;;;2.60;99.90;;;;;;5039612;28;20056;-70
2022/01/10 04:37:46;;;;;;;16.23;9.55;;;2.60;99.90;;;;;;5040093;28;20060;-71
2022/01/10 04:40:14;;;;;;;13.10;7.78;;;2.60;99.90;;;;;;5040716;28;20052;-70
2022/01/10 04:42:42;;;;;;;20.67;9.20;;;2.70;99.90;;;;;;5030112;28;20044;-70
2022/01/10 04:45:09;;;;;;;21.75;9.18;;;2.70;99.90;;;;;;5043058;28;20075;-70
2022/01/10 04:47:38;;;;;;;20.17;8.88;;;2.60;99.90;;;;;;5034865;28;20045;-69
2022/01/10 04:52:35;;;;;;;17.10;8.98;;;2.60;99.90;;;;;;5027889;28;20053;-69
2022/01/10 04:55:03;;;;;;;18.98;9.65;;;2.60;99.90;;;;;;5044436;28;20483;-69
2022/01/10 04:57:30;;;;;;;20.73;9.57;;;2.60;99.90;;;;;;5031593;28;20045;-70
2022/01/10 04:59:58;;;;;;;16.08;8.93;;;2.50;99.90;;;;;;5028084;28;20081;-70
2022/01/10 05:02:25;;;;;;;19.90;9.55;;;2.50;99.90;;;;;;5021846;28;20060;-70
2022/01/10 05:04:52;;;;;;;20.58;9.68;;;2.50;99.90;;;;;;5026670;28;20421;-70
2022/01/10 05:07:20;;;;;;;16.90;9.30;;;2.40;99.90;;;;;;5040074;28;20047;-70
2022/01/10 05:09:49;;;;;;;15.25;9.35;;;2.40;99.90;;;;;;5040387;28;20045;-70
2022/01/10 05:12:20;;;;;;;16.38;8.82;;;2.50;99.90;;;;;;5030620;28;20121;-69
2022/01/10 05:14:47;;;;;;;17.27;9.60;;;2.50;99.90;;;;;;5033607;28;20048;-68
2022/01/10 05:17:18;;;;;;;17.30;9.38;;;2.40;99.90;;;;;;5034079;28;20042;-69
2022/01/10 05:19:45;;;;;;;19.92;9.48;;;2.40;99.90;;;;;;5030462;28;20103;-69
2022/01/10 05:22:13;;;;;;;16.15;10.02;;;2.40;99.90;;;;;;5031873;28;20064;-69
2022/01/10 05:24:41;;;;;;;18.50;8.85;;;2.40;99.90;;;;;;5030997;28;20033;-70
2022/01/10 05:27:08;;;;;;;16.95;9.20;;;2.40;99.90;;;;;;5030833;28;20120;-69
2022/01/10 05:29:36;;;;;;;18.20;10.02;;;2.40;99.90;;;;;;5031215;28;20468;-69
2022/01/10 05:32:03;;;;;;;19.70;10.75;;;2.30;99.90;;;;;;5029697;28;20065;-70
2022/01/10 05:34:45;;;;;;;27.05;12.60;;;2.30;99.90;;;;;;5040702;28;20454;-69
2022/01/10 05:37:12;;;;;;;20.52;11.02;;;2.40;99.90;;;;;;5020026;28;20065;-69
2022/01/10 05:39:40;;;;;;;17.83;10.18;;;2.30;99.90;;;;;;5034386;28;20446;-70
2022/01/10 05:42:08;;;;;;;19.80;10.07;;;2.30;99.90;;;;;;5034124;28;20416;-70
2022/01/10 05:44:35;;;;;;;18.55;10.93;;;2.30;99.90;;;;;;5039476;28;20037;-70
2022/01/10 05:47:03;;;;;;;19.67;10.73;;;2.30;99.90;;;;;;5043693;28;20065;-69
2022/01/10 05:49:34;;;;;;;24.27;11.57;;;2.20;99.90;;;;;;5038078;28;20108;-69
2022/01/10 05:52:04;;;;;;;20.48;11.48;;;2.10;99.90;;;;;;5031534;28;20137;-68
2022/01/10 05:54:35;;;;;;;23.23;11.70;;;2.10;99.90;;;;;;5018391;28;20041;-70
2022/01/10 05:57:04;;;;;;;23.13;11.00;;;2.10;99.90;;;;;;5035315;28;20053;-69
2022/01/10 05:59:33;;;;;;;24.35;11.80;;;2.10;99.90;;;;;;5043520;28;20425;-70
2022/01/10 06:02:04;;;;;;;22.42;12.07;;;2.00;99.90;;;;;;5023243;28;20490;-69
2022/01/10 06:04:32;;;;;;;26.08;11.95;;;2.00;99.90;;;;;;5014011;28;20496;-70
2022/01/10 06:07:09;;;;;;;23.42;11.95;;;2.00;99.90;;;;;;5008546;28;20080;-69
2022/01/10 06:09:37;;;;;;;22.65;11.20;;;2.00;99.90;;;;;;5042563;28;20067;-70
2022/01/10 06:12:05;;;;;;;22.50;12.00;;;2.00;99.90;;;;;;5013898;28;20889;-70
2022/01/10 06:14:32;;;;;;;23.15;11.55;;;2.00;99.90;;;;;;5033876;28;20042;-69
2022/01/10 06:17:00;;;;;;;18.33;11.93;;;2.00;99.90;;;;;;5031365;28;20099;-71
2022/01/10 06:19:27;;;;;;;25.42;13.32;;;2.00;99.90;;;;;;5023793;28;20481;-69
2022/01/10 06:21:55;;;;;;;23.77;11.88;;;1.90;99.90;;;;;;5032024;28;20053;-70
2022/01/10 06:24:23;;;;;;;19.60;12.27;;;1.90;99.90;;;;;;5016598;28;20049;-70
2022/01/10 06:26:51;;;;;;;25.48;12.10;;;1.90;99.90;;;;;;5019778;28;20057;-70
2022/01/10 06:29:18;;;;;;;25.55;13.05;;;1.90;99.90;;;;;;5009473;28;20052;-70
2022/01/10 06:31:46;;;;;;;20.83;11.63;;;1.90;99.90;;;;;;5026057;28;20136;-69
2022/01/10 06:34:18;;;;;;;25.10;12.30;;;2.00;99.90;;;;;;5025623;28;20042;-70
2022/01/10 06:36:46;;;;;;;22.00;11.90;;;2.00;99.90;;;;;;5010596;28;20068;-70
2022/01/10 06:39:15;;;;;;;22.63;12.40;;;2.10;99.90;;;;;;5021057;28;20123;-69
2022/01/10 06:41:45;;;;;;;27.10;12.45;;;2.10;99.90;;;;;;5028838;28;20507;-69
2022/01/10 06:44:13;;;;;;;23.70;12.07;;;2.10;99.90;;;;;;5029581;28;20042;-69
2022/01/10 06:46:40;;;;;;;20.33;11.70;;;2.10;99.90;;;;;;5012916;28;20517;-69
2022/01/10 06:49:08;;;;;;;26.17;12.82;;;2.10;99.90;;;;;;5026193;28;21471;-70
2022/01/10 06:51:36;;;;;;;25.70;12.38;;;2.10;99.90;;;;;;5025512;28;20766;-70
2022/01/10 06:54:03;;;;;;;23.63;12.65;;;2.10;99.90;;;;;;5028432;28;20048;-69
2022/01/10 06:56:30;;;;;;;24.00;12.90;;;2.10;99.90;;;;;;5029669;28;20504;-70
2022/01/10 06:58:59;;;;;;;24.33;11.88;;;2.10;99.90;;;;;;5037295;28;20437;-69
2022/01/10 07:01:37;;;;;;;20.58;12.02;;;2.00;99.90;;;;;;5028227;28;20052;-70
2022/01/10 07:04:09;;;;;;;23.48;11.95;;;2.00;99.90;;;;;;5024195;28;20124;-70
2022/01/10 07:06:36;;;;;;;22.33;11.60;;;2.00;99.90;;;;;;5029661;28;20480;-70
2022/01/10 07:09:10;;;;;;;23.00;11.88;;;2.00;99.90;;;;;;5014167;28;20053;-70
2022/01/10 07:11:53;;;;;;;27.67;12.20;;;2.00;99.90;;;;;;5016092;28;20049;-69
2022/01/10 07:14:21;;;;;;;27.13;12.00;;;2.00;99.90;;;;;;5026651;28;20069;-70
2022/01/10 07:16:51;;;;;;;24.83;12.77;;;1.90;99.90;;;;;;5028542;28;20073;-69
2022/01/10 07:19:19;;;;;;;24.88;12.82;;;1.90;99.90;;;;;;5028933;28;20114;-70
2022/01/10 07:21:48;;;;;;;22.88;12.40;;;1.90;99.90;;;;;;5028693;28;20370;-69
2022/01/10 07:24:16;;;;;;;29.23;13.10;;;2.00;99.90;;;;;;5035150;28;20045;-71
2022/01/10 07:26:43;;;;;;;24.83;12.50;;;2.00;99.90;;;;;;5029393;28;20049;-70
2022/01/10 07:29:12;;;;;;;23.20;13.13;;;2.10;99.90;;;;;;5027828;28;20053;-70
2022/01/10 07:31:40;;;;;;;26.48;12.85;;;2.10;99.90;;;;;;5036476;28;20041;-69
2022/01/10 07:34:11;;;;;;;20.33;11.52;;;2.10;99.90;;;;;;5030189;28;20048;-70
2022/01/10 07:36:38;;;;;;;27.58;13.15;;;2.10;99.90;;;;;;5036193;28;20078;-69
2022/01/10 07:39:06;;;;;;;21.85;13.30;;;2.10;99.90;;;;;;5031473;28;20527;-69
2022/01/10 07:41:33;;;;;;;21.50;11.70;;;2.00;99.90;;;;;;5030191;28;20073;-70
2022/01/10 07:44:01;;;;;;;22.73;11.90;;;2.00;99.90;;;;;;5031389;28;20072;-70
2022/01/10 07:46:28;;;;;;;27.40;12.32;;;2.00;99.90;;;;;;5036777;28;20045;-70
2022/01/10 07:48:56;;;;;;;25.05;12.05;;;2.00;99.90;;;;;;5042748;28;20040;-69
2022/01/10 07:51:24;;;;;;;22.65;11.85;;;2.10;99.90;;;;;;5028153;28;20048;-69
2022/01/10 07:53:51;;;;;;;19.77;11.43;;;2.10;99.90;;;;;;5038445;28;20479;-69
2022/01/10 07:56:19;;;;;;;25.20;12.07;;;2.10;99.90;;;;;;5029940;28;20046;-69
2022/01/10 07:58:51;;;;;;;25.25;13.25;;;2.20;99.90;;;;;;5030009;28;20041;-69
2022/01/10 08:01:20;;;;;;;23.38;11.55;;;2.20;99.90;;;;;;5011953;28;20055;-70
2022/01/10 08:03:52;;;;;;;23.70;13.13;;;2.20;99.90;;;;;;5030208;28;20508;-68
2022/01/10 08:06:22;;;;;;;23.80;12.52;;;2.20;99.90;;;;;;5029748;28;20367;-70
2022/01/10 08:08:50;;;;;;;23.15;13.13;;;2.20;99.90;;;;;;5029841;28;20053;-69
2022/01/10 08:11:17;;;;;;;26.67;12.35;;;2.10;99.90;;;;;;5027509;28;20053;-70
2022/01/10 08:13:44;;;;;;;26.95;12.10;;;2.10;99.90;;;;;;5022206;28;20060;-69
2022/01/10 08:16:12;;;;;;;22.88;12.70;;;2.20;99.90;;;;;;5036948;28;20041;-68
2022/01/10 08:18:40;;;;;;;23.88;12.00;;;2.20;99.90;;;;;;5027827;28;20139;-69
2022/01/10 08:21:07;;;;;;;26.63;14.57;;;2.20;99.90;;;;;;5019653;28;20053;-68
2022/01/10 08:23:34;;;;;;;24.42;12.40;;;2.10;99.90;;;;;;5036745;28;20472;-69
2022/01/10 08:26:03;;;;;;;24.88;13.30;;;2.10;99.90;;;;;;5027867;28;20068;-70
2022/01/10 08:28:36;;;;;;;27.10;14.15;;;2.10;99.90;;;;;;5037328;28;20051;-70
2022/01/10 08:31:03;;;;;;;23.02;13.48;;;2.10;99.90;;;;;;5027146;28;20041;-70
2022/01/10 08:33:31;;;;;;;25.17;14.30;;;2.10;99.90;;;;;;5035175;28;20049;-69
2022/01/10 08:35:59;;;;;;;26.42;14.25;;;2.10;99.90;;;;;;5031924;28;20502;-69
2022/01/10 08:38:26;;;;;;;30.52;13.82;;;2.10;99.90;;;;;;5029529;28;20069;-69
2022/01/10 08:40:53;;;;;;;27.27;14.05;;;2.10;99.90;;;;;;5027711;28;20514;-70
2022/01/10 08:43:21;;;;;;;25.30;14.65;;;2.10;99.90;;;;;;5031741;28;20404;-69
2022/01/10 08:45:48;;;;;;;26.20;14.23;;;2.10;99.90;;;;;;5018752;28;20360;-70
2022/01/10 08:48:16;;;;;;;25.98;14.55;;;2.10;99.90;;;;;;5028734;28;20053;-69
2022/01/10 08:50:43;;;;;;;24.38;14.68;;;2.10;99.90;;;;;;5028922;28;20474;-70
2022/01/10 08:53:10;;;;;;;24.65;13.48;;;2.20;99.90;;;;;;5028746;28;20044;-70
2022/01/10 08:55:38;;;;;;;29.02;14.38;;;2.30;99.90;;;;;;5029708;28;20056;-71
2022/01/10 08:58:05;;;;;;;27.15;14.30;;;2.30;99.90;;;;;;5029553;28;20415;-70
2022/01/10 09:00:33;;;;;;;31.95;14.98;;;2.40;99.90;;;;;;5027233;28;20042;-69
2022/01/10 09:03:01;;;;;;;25.70;14.32;;;2.40;99.90;;;;;;5040658;28;20049;-69
2022/01/10 09:05:30;;;;;;;26.58;13.80;;;2.50;99.90;;;;;;5029169;28;20444;-70
2022/01/10 09:07:58;;;;;;;25.20;12.32;;;2.60;99.90;;;;;;5028525;28;20060;-69
2022/01/10 09:10:27;;;;;;;27.48;13.52;;;2.70;99.90;;;;;;5045803;28;20058;-70
2022/01/10 09:12:59;;;;;;;26.88;13.25;;;2.70;99.90;;;;;;5032375;28;20492;-68
2022/01/10 09:15:26;;;;;;;22.70;12.38;;;2.80;99.90;;;;;;5028100;28;20045;-69
2022/01/10 09:17:53;;;;;;;24.90;12.07;;;2.90;99.90;;;;;;5020352;28;20042;-69
2022/01/10 09:20:21;;;;;;;26.20;11.63;;;3.00;99.90;;;;;;5022568;28;20068;-70
2022/01/10 09:22:48;;;;;;;24.33;11.80;;;3.10;99.90;;;;;;5029617;28;20062;-70
2022/01/10 09:25:16;;;;;;;23.23;10.73;;;3.30;99.90;;;;;;5024139;28;20045;-70
2022/01/10 09:27:43;;;;;;;22.27;11.85;;;3.50;99.90;;;;;;5020685;28;20050;-69
2022/01/10 09:30:11;;;;;;;26.20;11.98;;;3.70;99.90;;;;;;5029095;28;20504;-70
2022/01/10 09:32:39;;;;;;;29.15;12.57;;;3.90;99.90;;;;;;5023408;28;20136;-69
2022/01/10 09:35:06;;;;;;;24.98;11.38;;;3.90;99.90;;;;;;5022537;28;20420;-69
2022/01/10 09:37:34;;;;;;;24.20;10.15;;;3.80;99.90;;;;;;5033654;28;20025;-69
2022/01/10 09:40:07;;;;;;;21.50;10.48;;;3.80;99.90;;;;;;5035337;28;20068;-70
2022/01/10 09:42:34;;;;;;;26.30;11.27;;;3.90;99.90;;;;;;5032719;28;20047;-70
2022/01/10 09:45:04;;;;;;;28.60;11.82;;;4.00;99.90;;;;;;5035693;28;20071;-70
2022/01/10 09:47:32;;;;;;;28.80;13.38;;;4.10;99.90;;;;;;5040360;28;20405;-70
2022/01/10 09:50:07;;;;;;;28.23;12.07;;;4.20;99.90;;;;;;5027681;28;20471;-70
2022/01/10 09:52:38;;;;;;;23.50;11.00;;;4.40;99.90;;;;;;5029253;28;20052;-71
2022/01/10 09:55:06;;;;;;;21.42;11.10;;;4.40;99.90;;;;;;5036724;28;20049;-71
2022/01/10 09:57:33;;;;;;;24.05;11.80;;;4.60;99.90;;;;;;5029287;28;20053;-71
2022/01/10 10:00:00;;;;;;;35.65;12.40;;;4.70;99.90;;;;;;5027094;28;20424;-70
2022/01/10 10:02:32;;;;;;;23.05;10.38;;;4.90;99.90;;;;;;5032954;28;20053;-70
2022/01/10 10:05:01;;;;;;;27.05;10.30;;;5.10;99.90;;;;;;5031702;28;20049;-70
2022/01/10 10:07:29;;;;;;;20.67;9.65;;;5.30;99.90;;;;;;5031256;28;20038;-69
2022/01/10 10:10:00;;;;;;;19.83;10.07;;;5.40;99.90;;;;;;5034611;28;20129;-70
2022/01/10 10:12:30;;;;;;;18.35;10.02;;;5.50;99.90;;;;;;5030835;28;20052;-69
2022/01/10 10:15:00;;;;;;;25.90;10.48;;;5.50;99.90;;;;;;5024836;28;20064;-68
2022/01/10 10:17:30;;;;;;;20.17;10.07;;;5.40;99.90;;;;;;5030569;28;20058;-69
2022/01/10 10:19:58;;;;;;;17.02;9.32;;;5.20;99.90;;;;;;5030592;28;20053;-70
2022/01/10 10:22:25;;;;;;;20.10;10.35;;;5.10;99.90;;;;;;5037512;28;20511;-69
2022/01/10 10:24:52;;;;;;;26.00;10.30;;;5.00;99.90;;;;;;5036921;28;20452;-70
2022/01/10 10:27:21;;;;;;;20.35;10.10;;;5.00;99.90;;;;;;5050056;28;20523;-69
2022/01/10 10:30:22;;;;;;;22.13;10.52;;;4.90;99.90;;;;;;5050267;28;20044;-69
2022/01/10 10:32:50;;;;;;;24.60;11.45;;;4.80;99.90;;;;;;5038948;28;20472;-70
2022/01/10 10:35:19;;;;;;;20.60;10.23;;;4.80;99.90;;;;;;5023181;28;20038;-69
2022/01/10 10:37:48;;;;;;;24.17;10.88;;;4.70;99.90;;;;;;5033109;28;20048;-70
2022/01/10 10:40:15;;;;;;;21.63;11.18;;;4.80;99.90;;;;;;5042296;28;20414;-69
2022/01/10 10:42:45;;;;;;;23.48;11.15;;;4.60;99.90;;;;;;5029548;28;20431;-70
2022/01/10 10:45:14;;;;;;;23.33;11.00;;;4.60;99.90;;;;;;5024047;28;20060;-70
2022/01/10 10:47:44;;;;;;;22.50;11.18;;;4.60;99.90;;;;;;5030852;28;20695;-69
2022/01/10 10:50:11;;;;;;;20.70;10.95;;;4.70;99.90;;;;;;5034751;28;20437;-69
2022/01/10 10:52:41;;;;;;;17.77;11.20;;;4.70;99.90;;;;;;5024377;28;20040;-70
2022/01/10 10:55:11;;;;;;;22.90;11.02;;;4.60;99.90;;;;;;5029475;28;20503;-69
2022/01/10 10:57:40;;;;;;;22.85;13.20;;;4.70;99.90;;;;;;5030781;28;20042;-70
2022/01/10 11:00:15;;;;;;;26.38;12.68;;;4.70;99.90;;;;;;5030767;28;20045;-70
2022/01/10 11:02:43;;;;;;;25.23;12.45;;;4.80;99.90;;;;;;5033070;28;20451;-69
2022/01/10 11:05:12;;;;;;;25.70;13.05;;;4.80;99.90;;;;;;5018788;28;20551;-70
2022/01/10 11:07:39;;;;;;;25.45;12.85;;;4.80;99.90;;;;;;5031947;28;20091;-69
2022/01/10 11:10:15;;;;;;;25.20;12.68;;;4.70;99.90;;;;;;5037668;28;20044;-69
2022/01/10 11:12:49;;;;;;;22.00;12.40;;;4.70;99.90;;;;;;5039494;28;20144;-70
2022/01/10 11:15:16;;;;;;;26.98;13.20;;;4.70;99.90;;;;;;5040643;28;20478;-70
2022/01/10 11:17:44;;;;;;;23.40;12.25;;;4.70;99.90;;;;;;5031576;28;20461;-70
2022/01/10 11:20:17;;;;;;;25.85;13.35;;;4.70;99.90;;;;;;5032306;28;20053;-70
2022/01/10 11:22:50;;;;;;;24.65;13.63;;;4.80;99.90;;;;;;5032661;28;20045;-70
2022/01/10 11:25:25;;;;;;;32.50;15.18;;;4.70;99.90;;;;;;5038315;28;20506;-69
2022/01/10 11:27:55;;;;;;;27.60;13.90;;;4.70;99.90;;;;;;5034357;28;20041;-70
2022/01/10 11:30:39;;;;;;;34.17;15.30;;;4.80;99.90;;;;;;5037644;28;20070;-70
2022/01/10 11:33:16;;;;;;;23.38;12.35;;;4.80;99.90;;;;;;5035716;28;20046;-70
2022/01/10 11:35:52;;;;;;;22.83;10.88;;;4.90;99.90;;;;;;5031379;28;20038;-70
2022/01/10 11:38:27;;;;;;;20.52;10.55;;;5.10;99.90;;;;;;5032074;28;20037;-70
2022/01/10 11:41:07;;;;;;;21.85;12.27;;;5.20;99.90;;;;;;5034663;28;20045;-70
2022/01/10 11:43:46;;;;;;;25.05;11.18;;;5.30;99.90;;;;;;5010089;28;20453;-70
2022/01/10 11:46:21;;;;;;;23.42;10.27;;;5.40;99.90;;;;;;5034791;28;20044;-70
2022/01/10 11:48:58;;;;;;;18.65;10.73;;;5.40;99.90;;;;;;5026602;28;20045;-70
2022/01/10 11:51:31;;;;;;;16.95;8.93;;;5.40;99.90;;;;;;5038558;28;20045;-70
2022/01/10 11:54:26;;;;;;;18.42;10.35;;;5.50;99.90;;;;;;5033356;28;20049;-70
2022/01/10 11:57:11;;;;;;;26.65;11.02;;;5.60;99.90;;;;;;5022432;28;20116;-70
2022/01/10 11:59:46;;;;;;;21.13;12.32;;;5.50;99.90;;;;;;5018905;28;20573;-70
2022/01/10 12:02:16;;;;;;;23.40;11.07;;;5.60;99.90;;;;;;5043419;28;20051;-70
2022/01/10 12:04:44;;;;;;;21.65;10.98;;;5.60;99.90;;;;;;5033374;28;20056;-70
2022/01/10 12:07:16;;;;;;;17.13;9.82;;;5.50;99.90;;;;;;5033087;28;20499;-70
2022/01/10 12:09:47;;;;;;;19.77;9.70;;;5.60;99.90;;;;;;5042215;28;20565;-71
2022/01/10 12:12:19;;;;;;;19.15;9.68;;;5.60;99.90;;;;;;5039370;28;20454;-70
2022/01/10 12:14:48;;;;;;;22.33;10.63;;;5.60;99.90;;;;;;5043727;28;20057;-70
2022/01/10 12:17:16;;;;;;;21.05;10.70;;;5.50;99.90;;;;;;5038585;28;20038;-70
2022/01/10 12:19:44;;;;;;;18.80;9.85;;;5.50;99.90;;;;;;5026922;28;20140;-70
2022/01/10 12:22:11;;;;;;;17.13;9.75;;;5.50;99.90;;;;;;5028128;28;20041;-69
2022/01/10 12:24:42;;;;;;;21.45;9.48;;;5.70;99.90;;;;;;5011809;28;20045;-69
2022/01/10 12:27:12;;;;;;;18.83;9.85;;;5.90;99.90;;;;;;5028530;28;20144;-69
2022/01/10 12:29:44;;;;;;;17.88;9.35;;;6.00;99.90;;;;;;5029314;28;20037;-69
2022/01/10 12:32:11;;;;;;;20.65;8.93;;;6.00;99.90;;;;;;5028496;28;20042;-68
2022/01/10 12:34:41;;;;;;;17.83;9.27;;;5.90;99.90;;;;;;5028593;28;20075;-70
2022/01/10 12:37:09;;;;;;;17.70;10.35;;;5.70;99.90;;;;;;5026981;28;20088;-69
2022/01/10 12:39:38;;;;;;;20.05;9.55;;;5.80;99.90;;;;;;5028514;28;20045;-69
2022/01/10 12:42:05;;;;;;;19.45;10.55;;;5.80;99.90;;;;;;5028485;28;20156;-70
2022/01/10 12:44:32;;;;;;;24.40;11.57;;;5.60;99.90;;;;;;5028383;28;20042;-69
2022/01/10 12:47:00;;;;;;;20.00;10.52;;;5.50;99.90;;;;;;5029767;28;20069;-69
2022/01/10 12:49:27;;;;;;;18.15;10.05;;;5.40;99.90;;;;;;5027856;28;20068;-68
2022/01/10 12:51:57;;;;;;;16.65;9.60;;;5.30;99.90;;;;;;5023623;28;20048;-69
2022/01/10 12:54:31;;;;;;;17.25;9.90;;;5.40;99.90;;;;;;5026073;28;20057;-70
2022/01/10 12:57:00;;;;;;;17.08;9.80;;;5.50;99.90;;;;;;5023748;28;20041;-69
2022/01/10 12:59:30;;;;;;;23.92;10.52;;;5.50;99.90;;;;;;5030098;28;20414;-70
2022/01/10 13:01:59;;;;;;;16.85;9.38;;;5.60;99.90;;;;;;5025616;28;20052;-70
2022/01/10 13:04:31;;;;;;;17.90;9.80;;;5.60;99.90;;;;;;5028485;28;20135;-69